sensor_id;sensor_type;location;lat;lon;timestamp;temperature;humidity
31046;DHT22;17711;54.018;9.300;2023-04-25T00:00:51;8.90;99.90
31046;DHT22;17711;54.018;9.300;2023-04-25T00:03:22;8.80;99.90
31046;DHT22;17711;54.018;9.300;2023-04-25T00:05:52;8.80;99.90
31046;DHT22;17711;54.018;9.300;2023-04-25T00:08:25;8.80;99.90
31046;DHT22;17711;54.018;9.300;2023-04-25T00:10:53;8.80;99.90
31046;DHT22;17711;54.018;9.300;2023-04-25T00:13:22;8.80;99.90
31046;DHT22;17711;54.018;9.300;2023-04-25T00:15:52;8.80;99.90
31046;DHT22;17711;54.018;9.300;2023-04-25T00:18:22;8.80;99.90
31046;DHT22;17711;54.018;9.300;2023-04-25T00:20:51;8.80;99.90
31046;DHT22;17711;54.018;9.300;2023-04-25T00:23:20;8.80;99.90
31046;DHT22;17711;54.018;9.300;2023-04-25T00:25:49;8.80;99.90
31046;DHT22;17711;54.018;9.300;2023-04-25T00:28:18;8.70;99.90
31046;DHT22;17711;54.018;9.300;2023-04-25T00:30:47;8.70;99.90
31046;DHT22;17711;54.018;9.300;2023-04-25T00:33:16;8.70;99.90
31046;DHT22;17711;54.018;9.300;2023-04-25T00:35:46;8.70;99.90
31046;DHT22;17711;54.018;9.300;2023-04-25T00:38:14;8.60;99.90
31046;DHT22;17711;54.018;9.300;2023-04-25T00:40:43;8.60;99.90
31046;DHT22;17711;54.018;9.300;2023-04-25T00:43:12;8.60;99.90
31046;DHT22;17711;54.018;9.300;2023-04-25T00:45:40;8.60;99.90
31046;DHT22;17711;54.018;9.300;2023-04-25T00:48:12;8.70;99.90
31046;DHT22;17711;54.018;9.300;2023-04-25T00:50:43;8.60;99.90
31046;DHT22;17711;54.018;9.300;2023-04-25T00:53:16;8.60;99.90
31046;DHT22;17711;54.018;9.300;2023-04-25T00:55:44;8.60;99.90
31046;DHT22;17711;54.018;9.300;2023-04-25T00:58:13;8.60;99.90
31046;DHT22;17711;54.018;9.300;2023-04-25T01:00:42;8.60;99.90
31046;DHT22;17711;54.018;9.300;2023-04-25T01:03:12;8.60;99.90
31046;DHT22;17711;54.018;9.300;2023-04-25T01:05:43;8.60;99.90
31046;DHT22;17711;54.018;9.300;2023-04-25T01:08:12;8.50;99.90
31046;DHT22;17711;54.018;9.300;2023-04-25T01:10:42;8.50;99.90
31046;DHT22;17711;54.018;9.300;2023-04-25T01:13:11;8.50;99.90
31046;DHT22;17711;54.018;9.300;2023-04-25T01:15:39;8.50;99.90
31046;DHT22;17711;54.018;9.300;2023-04-25T01:18:08;8.50;99.90
31046;DHT22;17711;54.018;9.300;2023-04-25T01:20:38;8.50;99.90
31046;DHT22;17711;54.018;9.300;2023-04-25T01:23:08;8.50;99.90
31046;DHT22;17711;54.018;9.300;2023-04-25T01:25:37;8.40;99.90
31046;DHT22;17711;54.018;9.300;2023-04-25T01:28:06;8.30;99.90
31046;DHT22;17711;54.018;9.300;2023-04-25T01:30:35;8.20;99.90
31046;DHT22;17711;54.018;9.300;2023-04-25T01:33:04;8.20;99.90
31046;DHT22;17711;54.018;9.300;2023-04-25T01:35:33;8.20;99.90
31046;DHT22;17711;54.018;9.300;2023-04-25T01:38:01;8.20;99.90
31046;DHT22;17711;54.018;9.300;2023-04-25T01:40:33;8.10;99.90
31046;DHT22;17711;54.018;9.300;2023-04-25T01:43:02;8.10;99.90
31046;DHT22;17711;54.018;9.300;2023-04-25T01:45:31;8.00;99.90
31046;DHT22;17711;54.018;9.300;2023-04-25T01:48:00;8.00;99.90
31046;DHT22;17711;54.018;9.300;2023-04-25T01:50:29;8.00;99.90
31046;DHT22;17711;54.018;9.300;2023-04-25T01:52:57;8.00;99.90
31046;DHT22;17711;54.018;9.300;2023-04-25T01:55:26;8.00;99.90
31046;DHT22;17711;54.018;9.300;2023-04-25T01:57:56;8.00;99.90
31046;DHT22;17711;54.018;9.300;2023-04-25T02:00:26;8.00;99.90
31046;DHT22;17711;54.018;9.300;2023-04-25T02:02:57;8.00;99.90
31046;DHT22;17711;54.018;9.300;2023-04-25T02:05:26;8.10;99.90
31046;DHT22;17711;54.018;9.300;2023-04-25T02:07:56;8.00;99.90
31046;DHT22;17711;54.018;9.300;2023-04-25T02:10:24;8.00;99.90
31046;DHT22;17711;54.018;9.300;2023-04-25T02:12:53;8.00;99.90
31046;DHT22;17711;54.018;9.300;2023-04-25T02:15:23;8.10;99.90
31046;DHT22;17711;54.018;9.300;2023-04-25T02:17:51;8.10;99.90
31046;DHT22;17711;54.018;9.300;2023-04-25T02:20:21;8.00;99.90
31046;DHT22;17711;54.018;9.300;2023-04-25T02:22:50;8.00;99.90
31046;DHT22;17711;54.018;9.300;2023-04-25T02:25:19;8.00;99.90
31046;DHT22;17711;54.018;9.300;2023-04-25T02:27:48;8.00;99.90
31046;DHT22;17711;54.018;9.300;2023-04-25T02:30:18;8.00;99.90
31046;DHT22;17711;54.018;9.300;2023-04-25T02:32:48;8.00;99.90
31046;DHT22;17711;54.018;9.300;2023-04-25T02:35:17;8.00;99.90
31046;DHT22;17711;54.018;9.300;2023-04-25T02:37:45;8.00;99.90
31046;DHT22;17711;54.018;9.300;2023-04-25T02:40:14;8.00;99.90
31046;DHT22;17711;54.018;9.300;2023-04-25T02:42:42;8.00;99.90
31046;DHT22;17711;54.018;9.300;2023-04-25T02:45:12;8.00;99.90
31046;DHT22;17711;54.018;9.300;2023-04-25T02:47:41;8.00;99.90
31046;DHT22;17711;54.018;9.300;2023-04-25T02:50:11;8.00;99.90
31046;DHT22;17711;54.018;9.300;2023-04-25T02:52:40;7.90;99.90
31046;DHT22;17711;54.018;9.300;2023-04-25T02:55:09;7.90;99.90
31046;DHT22;17711;54.018;9.300;2023-04-25T02:57:37;7.90;99.90
31046;DHT22;17711;54.018;9.300;2023-04-25T03:00:07;7.90;99.90
31046;DHT22;17711;54.018;9.300;2023-04-25T03:02:36;7.80;99.90
31046;DHT22;17711;54.018;9.300;2023-04-25T03:05:05;7.90;99.90
31046;DHT22;17711;54.018;9.300;2023-04-25T03:07:35;7.90;99.90
31046;DHT22;17711;54.018;9.300;2023-04-25T03:10:07;7.90;99.90
31046;DHT22;17711;54.018;9.300;2023-04-25T03:12:35;7.90;99.90
31046;DHT22;17711;54.018;9.300;2023-04-25T03:15:05;7.90;99.90
31046;DHT22;17711;54.018;9.300;2023-04-25T03:17:33;7.90;99.90
31046;DHT22;17711;54.018;9.300;2023-04-25T03:20:02;7.90;99.90
31046;DHT22;17711;54.018;9.300;2023-04-25T03:22:32;7.90;99.90
31046;DHT22;17711;54.018;9.300;2023-04-25T03:25:02;7.90;99.90
31046;DHT22;17711;54.018;9.300;2023-04-25T03:27:31;7.90;99.90
31046;DHT22;17711;54.018;9.300;2023-04-25T03:29:59;7.80;99.90
31046;DHT22;17711;54.018;9.300;2023-04-25T03:32:29;7.80;99.90
31046;DHT22;17711;54.018;9.300;2023-04-25T03:34:58;7.80;99.90
31046;DHT22;17711;54.018;9.300;2023-04-25T03:37:26;7.80;99.90
31046;DHT22;17711;54.018;9.300;2023-04-25T03:39:55;7.80;99.90
31046;DHT22;17711;54.018;9.300;2023-04-25T03:42:25;7.90;99.90
31046;DHT22;17711;54.018;9.300;2023-04-25T03:44:53;7.80;99.90
31046;DHT22;17711;54.018;9.300;2023-04-25T03:47:22;7.90;99.90
31046;DHT22;17711;54.018;9.300;2023-04-25T03:49:51;7.90;99.90
31046;DHT22;17711;54.018;9.300;2023-04-25T03:52:19;7.90;99.90
31046;DHT22;17711;54.018;9.300;2023-04-25T03:54:48;7.90;99.90
31046;DHT22;17711;54.018;9.300;2023-04-25T03:57:16;7.90;99.90
31046;DHT22;17711;54.018;9.300;2023-04-25T03:59:46;7.90;99.90
31046;DHT22;17711;54.018;9.300;2023-04-25T04:02:15;7.90;99.90
31046;DHT22;17711;54.018;9.300;2023-04-25T04:04:44;7.90;99.90
31046;DHT22;17711;54.018;9.300;2023-04-25T04:07:13;7.90;99.90
31046;DHT22;17711;54.018;9.300;2023-04-25T04:09:41;7.90;99.90
31046;DHT22;17711;54.018;9.300;2023-04-25T04:12:10;7.90;99.90
31046;DHT22;17711;54.018;9.300;2023-04-25T04:14:40;8.00;99.90
31046;DHT22;17711;54.018;9.300;2023-04-25T04:17:10;7.90;99.90
31046;DHT22;17711;54.018;9.300;2023-04-25T04:19:38;8.00;99.90
31046;DHT22;17711;54.018;9.300;2023-04-25T04:22:07;7.90;99.90
31046;DHT22;17711;54.018;9.300;2023-04-25T04:24:35;7.80;99.90
31046;DHT22;17711;54.018;9.300;2023-04-25T04:27:04;7.70;99.90
31046;DHT22;17711;54.018;9.300;2023-04-25T04:29:33;7.60;99.90
31046;DHT22;17711;54.018;9.300;2023-04-25T04:32:02;7.60;99.90
31046;DHT22;17711;54.018;9.300;2023-04-25T04:34:31;7.60;99.90
31046;DHT22;17711;54.018;9.300;2023-04-25T04:37:00;7.60;99.90
31046;DHT22;17711;54.018;9.300;2023-04-25T04:39:29;7.60;99.90
31046;DHT22;17711;54.018;9.300;2023-04-25T04:41:58;7.60;99.90
31046;DHT22;17711;54.018;9.300;2023-04-25T04:44:29;7.60;99.90
31046;DHT22;17711;54.018;9.300;2023-04-25T04:46:59;7.60;99.90
31046;DHT22;17711;54.018;9.300;2023-04-25T04:49:29;7.70;99.90
31046;DHT22;17711;54.018;9.300;2023-04-25T04:51:59;7.70;99.90
31046;DHT22;17711;54.018;9.300;2023-04-25T04:54:28;7.70;99.90
31046;DHT22;17711;54.018;9.300;2023-04-25T04:56:56;7.70;99.90
31046;DHT22;17711;54.018;9.300;2023-04-25T04:59:25;7.70;99.90
31046;DHT22;17711;54.018;9.300;2023-04-25T05:01:54;7.80;99.90
31046;DHT22;17711;54.018;9.300;2023-04-25T05:04:22;7.80;99.90
31046;DHT22;17711;54.018;9.300;2023-04-25T05:06:51;7.90;99.90
31046;DHT22;17711;54.018;9.300;2023-04-25T05:09:21;7.90;99.90
31046;DHT22;17711;54.018;9.300;2023-04-25T05:11:52;8.00;99.90
31046;DHT22;17711;54.018;9.300;2023-04-25T05:14:21;8.00;99.90
31046;DHT22;17711;54.018;9.300;2023-04-25T05:16:50;8.10;99.90
31046;DHT22;17711;54.018;9.300;2023-04-25T05:19:19;8.10;99.90
31046;DHT22;17711;54.018;9.300;2023-04-25T05:21:47;8.10;99.90
31046;DHT22;17711;54.018;9.300;2023-04-25T05:24:16;8.10;99.90
31046;DHT22;17711;54.018;9.300;2023-04-25T05:26:46;8.10;99.90
31046;DHT22;17711;54.018;9.300;2023-04-25T05:29:15;8.10;99.90
31046;DHT22;17711;54.018;9.300;2023-04-25T05:31:44;8.10;99.90
31046;DHT22;17711;54.018;9.300;2023-04-25T05:34:14;8.10;99.90
31046;DHT22;17711;54.018;9.300;2023-04-25T05:36:43;8.10;99.90
31046;DHT22;17711;54.018;9.300;2023-04-25T05:39:15;8.10;99.90
31046;DHT22;17711;54.018;9.300;2023-04-25T05:41:46;8.10;99.90
31046;DHT22;17711;54.018;9.300;2023-04-25T05:44:14;8.20;99.90
31046;DHT22;17711;54.018;9.300;2023-04-25T05:46:44;8.20;99.90
31046;DHT22;17711;54.018;9.300;2023-04-25T05:49:12;8.30;99.90
31046;DHT22;17711;54.018;9.300;2023-04-25T05:51:43;8.40;99.90
31046;DHT22;17711;54.018;9.300;2023-04-25T05:54:12;8.50;99.90
31046;DHT22;17711;54.018;9.300;2023-04-25T05:56:40;8.50;99.90
31046;DHT22;17711;54.018;9.300;2023-04-25T05:59:10;8.60;99.90
31046;DHT22;17711;54.018;9.300;2023-04-25T06:01:39;8.60;99.90
31046;DHT22;17711;54.018;9.300;2023-04-25T06:04:08;8.60;99.90
31046;DHT22;17711;54.018;9.300;2023-04-25T06:06:37;8.60;99.90
31046;DHT22;17711;54.018;9.300;2023-04-25T06:09:05;8.70;99.90
31046;DHT22;17711;54.018;9.300;2023-04-25T06:11:34;8.80;99.90
31046;DHT22;17711;54.018;9.300;2023-04-25T06:14:03;8.90;99.90
31046;DHT22;17711;54.018;9.300;2023-04-25T06:16:33;9.00;99.90
31046;DHT22;17711;54.018;9.300;2023-04-25T06:19:01;9.00;99.90
31046;DHT22;17711;54.018;9.300;2023-04-25T06:21:30;9.10;99.90
31046;DHT22;17711;54.018;9.300;2023-04-25T06:23:58;9.10;99.90
31046;DHT22;17711;54.018;9.300;2023-04-25T06:26:27;9.10;99.90
31046;DHT22;17711;54.018;9.300;2023-04-25T06:28:56;9.20;99.90
31046;DHT22;17711;54.018;9.300;2023-04-25T06:31:24;9.20;99.90
31046;DHT22;17711;54.018;9.300;2023-04-25T06:33:55;9.20;99.90
31046;DHT22;17711;54.018;9.300;2023-04-25T06:36:23;9.10;99.90
31046;DHT22;17711;54.018;9.300;2023-04-25T06:38:55;9.00;99.90
31046;DHT22;17711;54.018;9.300;2023-04-25T06:41:23;9.00;99.90
31046;DHT22;17711;54.018;9.300;2023-04-25T06:43:52;9.00;99.90
31046;DHT22;17711;54.018;9.300;2023-04-25T06:46:20;9.10;99.90
31046;DHT22;17711;54.018;9.300;2023-04-25T06:48:49;9.30;99.90
31046;DHT22;17711;54.018;9.300;2023-04-25T06:51:20;9.40;99.90
31046;DHT22;17711;54.018;9.300;2023-04-25T06:53:50;9.60;99.90
31046;DHT22;17711;54.018;9.300;2023-04-25T06:56:18;9.80;99.90
31046;DHT22;17711;54.018;9.300;2023-04-25T06:58:48;9.90;99.90
31046;DHT22;17711;54.018;9.300;2023-04-25T07:01:17;10.00;99.90
31046;DHT22;17711;54.018;9.300;2023-04-25T07:03:46;9.90;99.90
31046;DHT22;17711;54.018;9.300;2023-04-25T07:06:15;9.80;99.90
31046;DHT22;17711;54.018;9.300;2023-04-25T07:08:44;9.80;99.90
31046;DHT22;17711;54.018;9.300;2023-04-25T07:11:13;9.70;99.90
31046;DHT22;17711;54.018;9.300;2023-04-25T07:13:41;9.70;99.90
31046;DHT22;17711;54.018;9.300;2023-04-25T07:16:10;9.70;99.90
31046;DHT22;17711;54.018;9.300;2023-04-25T07:18:38;9.70;99.90
31046;DHT22;17711;54.018;9.300;2023-04-25T07:21:07;9.70;99.90
31046;DHT22;17711;54.018;9.300;2023-04-25T07:23:35;9.60;99.90
31046;DHT22;17711;54.018;9.300;2023-04-25T07:26:06;9.40;99.90
31046;DHT22;17711;54.018;9.300;2023-04-25T07:28:34;9.20;99.90
31046;DHT22;17711;54.018;9.300;2023-04-25T07:31:03;9.20;99.90
31046;DHT22;17711;54.018;9.300;2023-04-25T07:33:32;9.30;99.90
31046;DHT22;17711;54.018;9.300;2023-04-25T07:36:01;9.50;99.90
31046;DHT22;17711;54.018;9.300;2023-04-25T07:38:30;9.80;99.90
31046;DHT22;17711;54.018;9.300;2023-04-25T07:40:59;10.10;99.90
31046;DHT22;17711;54.018;9.300;2023-04-25T07:43:29;10.30;99.90
31046;DHT22;17711;54.018;9.300;2023-04-25T07:45:57;10.40;99.90
31046;DHT22;17711;54.018;9.300;2023-04-25T07:48:26;10.40;99.90
31046;DHT22;17711;54.018;9.300;2023-04-25T07:50:55;10.40;99.90
31046;DHT22;17711;54.018;9.300;2023-04-25T07:53:23;10.60;99.90
31046;DHT22;17711;54.018;9.300;2023-04-25T07:55:54;10.70;99.90
31046;DHT22;17711;54.018;9.300;2023-04-25T07:58:23;11.00;99.90
31046;DHT22;17711;54.018;9.300;2023-04-25T08:00:53;11.00;99.90
31046;DHT22;17711;54.018;9.300;2023-04-25T08:03:22;11.00;99.90
31046;DHT22;17711;54.018;9.300;2023-04-25T08:05:51;10.70;99.90
31046;DHT22;17711;54.018;9.300;2023-04-25T08:08:19;10.40;99.90
31046;DHT22;17711;54.018;9.300;2023-04-25T08:10:48;10.10;99.90
31046;DHT22;17711;54.018;9.300;2023-04-25T08:13:17;10.00;99.90
31046;DHT22;17711;54.018;9.300;2023-04-25T08:15:45;9.90;99.90
31046;DHT22;17711;54.018;9.300;2023-04-25T08:18:15;10.00;99.90
31046;DHT22;17711;54.018;9.300;2023-04-25T08:20:44;11.00;99.90
31046;DHT22;17711;54.018;9.300;2023-04-25T08:23:12;12.10;99.90
31046;DHT22;17711;54.018;9.300;2023-04-25T08:25:41;12.70;99.90
31046;DHT22;17711;54.018;9.300;2023-04-25T08:28:10;12.90;99.90
31046;DHT22;17711;54.018;9.300;2023-04-25T08:30:38;12.70;99.90
31046;DHT22;17711;54.018;9.300;2023-04-25T08:33:07;13.00;99.90
31046;DHT22;17711;54.018;9.300;2023-04-25T08:35:37;13.50;99.90
31046;DHT22;17711;54.018;9.300;2023-04-25T08:38:05;13.60;99.90
31046;DHT22;17711;54.018;9.300;2023-04-25T08:40:38;13.70;99.90
31046;DHT22;17711;54.018;9.300;2023-04-25T08:43:07;14.10;99.90
31046;DHT22;17711;54.018;9.300;2023-04-25T08:45:39;14.10;99.90
31046;DHT22;17711;54.018;9.300;2023-04-25T08:48:13;13.70;99.90
31046;DHT22;17711;54.018;9.300;2023-04-25T08:50:46;13.40;99.90
31046;DHT22;17711;54.018;9.300;2023-04-25T08:53:16;13.90;99.90
31046;DHT22;17711;54.018;9.300;2023-04-25T08:55:46;15.20;99.90
31046;DHT22;17711;54.018;9.300;2023-04-25T08:58:16;16.00;99.90
31046;DHT22;17711;54.018;9.300;2023-04-25T09:00:46;16.40;98.10
31046;DHT22;17711;54.018;9.300;2023-04-25T09:03:16;16.00;82.90
31046;DHT22;17711;54.018;9.300;2023-04-25T09:05:46;15.60;95.20
31046;DHT22;17711;54.018;9.300;2023-04-25T09:08:15;15.50;95.30
31046;DHT22;17711;54.018;9.300;2023-04-25T09:10:44;15.60;99.90
31046;DHT22;17711;54.018;9.300;2023-04-25T09:13:14;15.20;99.90
31046;DHT22;17711;54.018;9.300;2023-04-25T09:15:50;14.20;99.90
31046;DHT22;17711;54.018;9.300;2023-04-25T09:18:23;13.30;99.90
31046;DHT22;17711;54.018;9.300;2023-04-25T09:21:04;12.60;99.90
31046;DHT22;17711;54.018;9.300;2023-04-25T09:23:40;12.10;99.90
31046;DHT22;17711;54.018;9.300;2023-04-25T09:26:09;12.00;99.90
31046;DHT22;17711;54.018;9.300;2023-04-25T09:28:40;12.20;99.90
31046;DHT22;17711;54.018;9.300;2023-04-25T09:31:10;12.70;99.90
31046;DHT22;17711;54.018;9.300;2023-04-25T09:33:40;13.30;99.90
31046;DHT22;17711;54.018;9.300;2023-04-25T09:36:11;14.10;99.90
31046;DHT22;17711;54.018;9.300;2023-04-25T09:38:41;15.80;99.90
31046;DHT22;17711;54.018;9.300;2023-04-25T09:41:11;16.20;99.90
31046;DHT22;17711;54.018;9.300;2023-04-25T09:43:40;15.50;99.90
31046;DHT22;17711;54.018;9.300;2023-04-25T09:46:13;16.40;82.20
31046;DHT22;17711;54.018;9.300;2023-04-25T09:48:48;16.60;65.00
31046;DHT22;17711;54.018;9.300;2023-04-25T09:51:19;15.80;84.40
31046;DHT22;17711;54.018;9.300;2023-04-25T09:53:47;15.10;90.00
31046;DHT22;17711;54.018;9.300;2023-04-25T09:56:20;14.70;99.90
31046;DHT22;17711;54.018;9.300;2023-04-25T09:58:50;14.60;84.10
31046;DHT22;17711;54.018;9.300;2023-04-25T10:01:21;14.50;98.30
31046;DHT22;17711;54.018;9.300;2023-04-25T10:03:51;14.90;99.90
31046;DHT22;17711;54.018;9.300;2023-04-25T10:06:24;15.40;99.90
31046;DHT22;17711;54.018;9.300;2023-04-25T10:08:54;15.80;93.10
31046;DHT22;17711;54.018;9.300;2023-04-25T10:11:25;16.80;99.70
31046;DHT22;17711;54.018;9.300;2023-04-25T10:13:54;19.00;88.40
31046;DHT22;17711;54.018;9.300;2023-04-25T10:16:24;21.00;67.10
31046;DHT22;17711;54.018;9.300;2023-04-25T10:18:54;22.60;49.10
31046;DHT22;17711;54.018;9.300;2023-04-25T10:21:24;23.00;44.00
31046;DHT22;17711;54.018;9.300;2023-04-25T10:23:55;22.50;42.50
31046;DHT22;17711;54.018;9.300;2023-04-25T10:26:25;21.00;42.00
31046;DHT22;17711;54.018;9.300;2023-04-25T10:28:57;19.20;46.20
31046;DHT22;17711;54.018;9.300;2023-04-25T10:31:26;17.80;51.40
31046;DHT22;17711;54.018;9.300;2023-04-25T10:33:55;17.20;51.40
31046;DHT22;17711;54.018;9.300;2023-04-25T10:36:25;16.50;58.40
31046;DHT22;17711;54.018;9.300;2023-04-25T10:38:54;15.80;64.40
31046;DHT22;17711;54.018;9.300;2023-04-25T10:41:24;15.20;75.40
31046;DHT22;17711;54.018;9.300;2023-04-25T10:43:59;15.10;99.90
31046;DHT22;17711;54.018;9.300;2023-04-25T10:46:29;14.80;99.90
31046;DHT22;17711;54.018;9.300;2023-04-25T10:48:59;14.70;99.90
31046;DHT22;17711;54.018;9.300;2023-04-25T10:51:31;14.60;99.90
31046;DHT22;17711;54.018;9.300;2023-04-25T10:54:20;14.80;99.90
31046;DHT22;17711;54.018;9.300;2023-04-25T10:56:52;14.60;99.90
31046;DHT22;17711;54.018;9.300;2023-04-25T10:59:25;14.70;99.90
31046;DHT22;17711;54.018;9.300;2023-04-25T11:01:54;15.00;99.90
31046;DHT22;17711;54.018;9.300;2023-04-25T11:04:24;14.80;99.90
31046;DHT22;17711;54.018;9.300;2023-04-25T11:07:10;15.90;99.90
31046;DHT22;17711;54.018;9.300;2023-04-25T11:09:41;18.60;73.70
31046;DHT22;17711;54.018;9.300;2023-04-25T11:12:10;19.10;58.40
31046;DHT22;17711;54.018;9.300;2023-04-25T11:14:40;18.70;56.40
31046;DHT22;17711;54.018;9.300;2023-04-25T11:17:09;18.60;55.40
31046;DHT22;17711;54.018;9.300;2023-04-25T11:19:38;18.00;52.80
31046;DHT22;17711;54.018;9.300;2023-04-25T11:22:10;17.20;53.30
31046;DHT22;17711;54.018;9.300;2023-04-25T11:24:38;16.20;60.00
31046;DHT22;17711;54.018;9.300;2023-04-25T11:27:07;15.50;94.20
31046;DHT22;17711;54.018;9.300;2023-04-25T11:29:36;14.90;99.90
31046;DHT22;17711;54.018;9.300;2023-04-25T11:32:05;16.00;98.60
31046;DHT22;17711;54.018;9.300;2023-04-25T11:34:33;17.10;80.90
31046;DHT22;17711;54.018;9.300;2023-04-25T11:37:03;18.40;53.80
31046;DHT22;17711;54.018;9.300;2023-04-25T11:39:34;18.50;49.30
31046;DHT22;17711;54.018;9.300;2023-04-25T11:42:04;18.60;51.10
31046;DHT22;17711;54.018;9.300;2023-04-25T11:44:38;19.40;58.90
31046;DHT22;17711;54.018;9.300;2023-04-25T11:47:07;18.90;54.90
31046;DHT22;17711;54.018;9.300;2023-04-25T11:49:36;17.60;59.20
31046;DHT22;17711;54.018;9.300;2023-04-25T11:52:06;16.60;67.10
31046;DHT22;17711;54.018;9.300;2023-04-25T11:54:37;16.40;81.80
31046;DHT22;17711;54.018;9.300;2023-04-25T11:57:06;16.60;96.80
31046;DHT22;17711;54.018;9.300;2023-04-25T11:59:34;16.70;75.80
31046;DHT22;17711;54.018;9.300;2023-04-25T12:02:03;16.30;63.50
31046;DHT22;17711;54.018;9.300;2023-04-25T12:04:34;17.10;64.40
31046;DHT22;17711;54.018;9.300;2023-04-25T12:07:03;18.60;49.50
31046;DHT22;17711;54.018;9.300;2023-04-25T12:09:33;20.10;52.80
31046;DHT22;17711;54.018;9.300;2023-04-25T12:12:03;21.70;48.00
31046;DHT22;17711;54.018;9.300;2023-04-25T12:14:34;23.40;47.60
31046;DHT22;17711;54.018;9.300;2023-04-25T12:17:04;23.80;35.30
31046;DHT22;17711;54.018;9.300;2023-04-25T12:19:36;24.00;34.70
31046;DHT22;17711;54.018;9.300;2023-04-25T12:22:19;24.80;36.40
31046;DHT22;17711;54.018;9.300;2023-04-25T12:24:49;24.80;32.60
31046;DHT22;17711;54.018;9.300;2023-04-25T12:27:21;24.80;31.90
31046;DHT22;17711;54.018;9.300;2023-04-25T12:29:52;25.00;32.80
31046;DHT22;17711;54.018;9.300;2023-04-25T12:32:20;25.30;34.20
31046;DHT22;17711;54.018;9.300;2023-04-25T12:34:49;25.50;31.60
31046;DHT22;17711;54.018;9.300;2023-04-25T12:37:18;24.60;30.00
31046;DHT22;17711;54.018;9.300;2023-04-25T12:39:46;23.50;31.40
31046;DHT22;17711;54.018;9.300;2023-04-25T12:42:15;23.70;37.00
31046;DHT22;17711;54.018;9.300;2023-04-25T12:44:45;23.40;33.80
31046;DHT22;17711;54.018;9.300;2023-04-25T12:47:14;22.10;36.00
31046;DHT22;17711;54.018;9.300;2023-04-25T12:49:42;21.00;39.80
31046;DHT22;17711;54.018;9.300;2023-04-25T12:52:11;20.30;42.40
31046;DHT22;17711;54.018;9.300;2023-04-25T12:54:39;19.50;44.80
31046;DHT22;17711;54.018;9.300;2023-04-25T12:57:08;18.80;46.20
31046;DHT22;17711;54.018;9.300;2023-04-25T12:59:36;18.10;47.80
31046;DHT22;17711;54.018;9.300;2023-04-25T13:02:07;18.60;51.80
31046;DHT22;17711;54.018;9.300;2023-04-25T13:04:35;19.60;55.80
31046;DHT22;17711;54.018;9.300;2023-04-25T13:07:04;21.10;53.50
31046;DHT22;17711;54.018;9.300;2023-04-25T13:09:32;21.40;43.80
31046;DHT22;17711;54.018;9.300;2023-04-25T13:12:01;20.90;46.40
31046;DHT22;17711;54.018;9.300;2023-04-25T13:14:30;20.20;42.90
31046;DHT22;17711;54.018;9.300;2023-04-25T13:16:58;19.70;45.50
31046;DHT22;17711;54.018;9.300;2023-04-25T13:19:29;20.30;43.90
31046;DHT22;17711;54.018;9.300;2023-04-25T13:21:57;20.10;41.00
31046;DHT22;17711;54.018;9.300;2023-04-25T13:24:26;18.80;42.50
31046;DHT22;17711;54.018;9.300;2023-04-25T13:26:55;19.40;46.30
31046;DHT22;17711;54.018;9.300;2023-04-25T13:29:24;20.30;47.50
31046;DHT22;17711;54.018;9.300;2023-04-25T13:31:52;20.30;42.90
31046;DHT22;17711;54.018;9.300;2023-04-25T13:34:22;20.00;42.70
31046;DHT22;17711;54.018;9.300;2023-04-25T13:36:52;20.50;44.60
31046;DHT22;17711;54.018;9.300;2023-04-25T13:39:20;19.70;41.40
31046;DHT22;17711;54.018;9.300;2023-04-25T13:41:49;19.30;47.90
31046;DHT22;17711;54.018;9.300;2023-04-25T13:44:17;19.60;48.20
31046;DHT22;17711;54.018;9.300;2023-04-25T13:46:46;19.50;48.50
31046;DHT22;17711;54.018;9.300;2023-04-25T13:49:15;18.80;47.40
31046;DHT22;17711;54.018;9.300;2023-04-25T13:51:43;18.30;59.10
31046;DHT22;17711;54.018;9.300;2023-04-25T13:54:13;18.40;61.20
31046;DHT22;17711;54.018;9.300;2023-04-25T13:56:42;18.90;58.20
31046;DHT22;17711;54.018;9.300;2023-04-25T13:59:10;19.40;49.00
31046;DHT22;17711;54.018;9.300;2023-04-25T14:01:39;19.20;46.10
31046;DHT22;17711;54.018;9.300;2023-04-25T14:04:08;18.90;47.50
31046;DHT22;17711;54.018;9.300;2023-04-25T14:06:36;19.40;47.20
31046;DHT22;17711;54.018;9.300;2023-04-25T14:09:05;19.70;44.50
31046;DHT22;17711;54.018;9.300;2023-04-25T14:11:35;20.00;46.40
31046;DHT22;17711;54.018;9.300;2023-04-25T14:14:04;20.00;47.00
31046;DHT22;17711;54.018;9.300;2023-04-25T14:16:34;20.40;42.50
31046;DHT22;17711;54.018;9.300;2023-04-25T14:19:03;20.80;42.40
31046;DHT22;17711;54.018;9.300;2023-04-25T14:21:31;21.00;38.90
31046;DHT22;17711;54.018;9.300;2023-04-25T14:24:00;21.40;39.80
31046;DHT22;17711;54.018;9.300;2023-04-25T14:26:29;21.30;39.00
31046;DHT22;17711;54.018;9.300;2023-04-25T14:28:59;21.10;39.70
31046;DHT22;17711;54.018;9.300;2023-04-25T14:31:28;21.20;43.50
31046;DHT22;17711;54.018;9.300;2023-04-25T14:33:57;21.10;42.50
31046;DHT22;17711;54.018;9.300;2023-04-25T14:36:26;20.80;40.40
31046;DHT22;17711;54.018;9.300;2023-04-25T14:38:55;20.00;41.80
31046;DHT22;17711;54.018;9.300;2023-04-25T14:41:24;19.10;42.60
31046;DHT22;17711;54.018;9.300;2023-04-25T14:43:53;19.00;44.40
31046;DHT22;17711;54.018;9.300;2023-04-25T14:46:24;19.00;44.50
31046;DHT22;17711;54.018;9.300;2023-04-25T14:48:52;19.00;44.30
31046;DHT22;17711;54.018;9.300;2023-04-25T14:51:23;18.50;43.40
31046;DHT22;17711;54.018;9.300;2023-04-25T14:53:51;18.40;45.20
31046;DHT22;17711;54.018;9.300;2023-04-25T14:56:20;18.40;46.40
31046;DHT22;17711;54.018;9.300;2023-04-25T14:58:49;17.80;47.30
31046;DHT22;17711;54.018;9.300;2023-04-25T15:01:17;17.90;60.20
31046;DHT22;17711;54.018;9.300;2023-04-25T15:03:50;18.10;48.00
31046;DHT22;17711;54.018;9.300;2023-04-25T15:06:19;17.60;49.30
31046;DHT22;17711;54.018;9.300;2023-04-25T15:08:48;17.30;47.20
31046;DHT22;17711;54.018;9.300;2023-04-25T15:11:17;17.40;51.70
31046;DHT22;17711;54.018;9.300;2023-04-25T15:13:47;17.40;49.50
31046;DHT22;17711;54.018;9.300;2023-04-25T15:16:16;17.60;50.10
31046;DHT22;17711;54.018;9.300;2023-04-25T15:18:44;17.70;49.20
31046;DHT22;17711;54.018;9.300;2023-04-25T15:21:14;17.40;51.50
31046;DHT22;17711;54.018;9.300;2023-04-25T15:23:43;16.90;49.60
31046;DHT22;17711;54.018;9.300;2023-04-25T15:26:11;16.30;52.60
31046;DHT22;17711;54.018;9.300;2023-04-25T15:28:40;15.90;56.50
31046;DHT22;17711;54.018;9.300;2023-04-25T15:31:09;15.50;64.50
31046;DHT22;17711;54.018;9.300;2023-04-25T15:33:38;15.00;77.20
31046;DHT22;17711;54.018;9.300;2023-04-25T15:36:07;14.50;84.90
31046;DHT22;17711;54.018;9.300;2023-04-25T15:38:38;13.80;99.90
31046;DHT22;17711;54.018;9.300;2023-04-25T15:41:07;13.30;99.90
31046;DHT22;17711;54.018;9.300;2023-04-25T15:43:35;12.90;99.90
31046;DHT22;17711;54.018;9.300;2023-04-25T15:46:04;12.70;99.90
31046;DHT22;17711;54.018;9.300;2023-04-25T15:48:33;12.80;99.90
31046;DHT22;17711;54.018;9.300;2023-04-25T15:51:02;13.00;99.90